Time;durP1;ratioP1;P1;durP2;ratioP2;P2;SDS_P1;SDS_P2;PMS_P1;PMS_P2;Temp;Humidity;BMP_temperature;BMP_pressure;BME280_temperature;BME280_humidity;BME280_pressure;Samples;Min_cycle;Max_cycle;Signal;HPM_P1;HPM_P2
2022/06/07 00:02:08;;;;;;;1.08;0.95;;;;;;;;;;5015314;28;20513;-80
2022/06/07 00:04:35;;;;;;;1.38;1.02;;;;;;;;;;5047862;28;20030;-79
2022/06/07 00:07:01;;;;;;;1.33;1.02;;;;;;;;;;5015652;28;20044;-79
2022/06/07 00:09:26;;;;;;;1.45;1.23;;;;;;;;;;5030713;28;20025;-79
2022/06/07 00:11:52;;;;;;;2.20;0.90;;;;;;;;;;5015274;28;20033;-79
2022/06/07 00:14:18;;;;;;;1.73;1.63;;;;;;;;;;5015440;28;20101;-79
2022/06/07 00:16:43;;;;;;;1.60;1.48;;;;;;;;;;5047343;28;20034;-79
2022/06/07 00:19:09;;;;;;;1.88;1.45;;;;;;;;;;5015772;28;20033;-80
2022/06/07 00:21:36;;;;;;;1.08;1.00;;;;;;;;;;5015611;28;20033;-80
2022/06/07 00:24:05;;;;;;;2.03;1.55;;;;;;;;;;5015104;28;20490;-79
2022/06/07 00:26:31;;;;;;;0.73;0.65;;;;;;;;;;5015301;28;20034;-80
2022/06/07 00:28:57;;;;;;;2.97;2.08;;;;;;;;;;5014994;28;20410;-80
2022/06/07 00:31:22;;;;;;;0.70;0.70;;;;;;;;;;5015505;28;20033;-80
2022/06/07 00:33:50;;;;;;;1.20;0.80;;;;;;;;;;5047244;28;20030;-79
2022/06/07 00:36:16;;;;;;;0.95;0.68;;;;;;;;;;5015112;28;20040;-80
2022/06/07 00:38:45;;;;;;;2.22;1.23;;;;;;;;;;5015366;28;20029;-80
2022/06/07 00:41:11;;;;;;;2.75;0.98;;;;;;;;;;5015161;28;20423;-79
2022/06/07 00:43:37;;;;;;;3.28;1.48;;;;;;;;;;5046698;28;20037;-80
2022/06/07 00:46:07;;;;;;;2.38;1.58;;;;;;;;;;5015083;28;20350;-80
2022/06/07 00:48:32;;;;;;;1.80;1.27;;;;;;;;;;5014724;28;20026;-80
2022/06/07 00:51:09;;;;;;;1.13;1.02;;;;;;;;;;5047123;28;20024;-79
2022/06/07 00:53:35;;;;;;;1.30;1.20;;;;;;;;;;5030179;28;20042;-80
2022/06/07 00:56:01;;;;;;;2.22;1.58;;;;;;;;;;5014578;28;20032;-80
2022/06/07 00:58:28;;;;;;;1.65;0.98;;;;;;;;;;5018774;28;20112;-79
2022/06/07 01:00:57;;;;;;;0.22;0.22;;;;;;;;;;5018949;28;20037;-79
2022/06/07 01:03:23;;;;;;;2.55;1.25;;;;;;;;;;5019135;28;20030;-80
2022/06/07 01:05:49;;;;;;;3.40;1.23;;;;;;;;;;5051205;28;20076;-79
2022/06/07 01:11:01;;;;;;;1.60;1.38;;;;;;;;;;5046021;28;20040;-80
2022/06/07 01:13:32;;;;;;;0.80;0.80;;;;;;;;;;5050610;28;20049;-80
2022/06/07 01:16:03;;;;;;;0.73;0.50;;;;;;;;;;5018625;28;20026;-80
2022/06/07 01:18:31;;;;;;;1.70;1.55;;;;;;;;;;5018609;28;20029;-80
2022/06/07 01:21:35;;;;;;;0.68;0.60;;;;;;;;;;5050082;28;20104;-80
2022/06/07 01:24:01;;;;;;;1.40;1.17;;;;;;;;;;5007160;28;20049;-79
2022/06/07 01:26:26;;;;;;;0.40;0.40;;;;;;;;;;5018174;28;20032;-80
2022/06/07 01:28:52;;;;;;;0.90;0.90;;;;;;;;;;5018439;28;20033;-79
2022/06/07 01:31:17;;;;;;;4.00;1.05;;;;;;;;;;5017995;28;20088;-80
2022/06/07 01:33:47;;;;;;;1.15;0.75;;;;;;;;;;5050574;28;20387;-79
2022/06/07 01:36:15;;;;;;;0.73;0.52;;;;;;;;;;5017019;28;20136;-80
2022/06/07 01:38:42;;;;;;;0.40;0.40;;;;;;;;;;5017949;28;20025;-80
2022/06/07 01:43:52;;;;;;;0.68;0.38;;;;;;;;;;5045491;28;20076;-80
2022/06/07 01:46:18;;;;;;;0.22;0.22;;;;;;;;;;5017784;28;20053;-78
2022/06/07 01:48:46;;;;;;;1.48;0.63;;;;;;;;;;5017830;28;20109;-80
2022/06/07 01:51:12;;;;;;;0.50;0.47;;;;;;;;;;5033129;28;20113;-78
2022/06/07 01:53:41;;;;;;;1.30;0.73;;;;;;;;;;5016853;28;20455;-79
2022/06/07 01:56:07;;;;;;;2.10;0.60;;;;;;;;;;5000615;28;20077;-78
2022/06/07 02:01:54;;;;;;;0.35;0.35;;;;;;;;;;5017849;28;20045;-80
2022/06/07 02:04:22;;;;;;;0.95;0.85;;;;;;;;;;5017507;28;20381;-79
2022/06/07 02:06:49;;;;;;;0.80;0.80;;;;;;;;;;5017316;28;20025;-80
2022/06/07 02:09:15;;;;;;;1.65;0.70;;;;;;;;;;5015606;28;20089;-78
2022/06/07 02:11:41;;;;;;;1.17;0.47;;;;;;;;;;5017439;28;20403;-80
2022/06/07 02:14:07;;;;;;;1.45;0.95;;;;;;;;;;5017227;28;20048;-79
2022/06/07 02:16:33;;;;;;;0.63;0.40;;;;;;;;;;5017787;28;20022;-80
2022/06/07 02:18:58;;;;;;;0.80;0.80;;;;;;;;;;5017613;28;20064;-80
2022/06/07 02:21:25;;;;;;;0.80;0.80;;;;;;;;;;5017358;28;20029;-80
2022/06/07 02:23:50;;;;;;;0.75;0.75;;;;;;;;;;5016391;28;20041;-80
2022/06/07 02:26:30;;;;;;;3.60;0.75;;;;;;;;;;5017120;28;20018;-80
2022/06/07 02:29:00;;;;;;;0.22;0.22;;;;;;;;;;5016184;28;20026;-79
2022/06/07 02:31:27;;;;;;;0.30;0.30;;;;;;;;;;5017355;28;20041;-79
2022/06/07 02:33:53;;;;;;;0.63;0.63;;;;;;;;;;5049461;28;20018;-80
2022/06/07 02:36:19;;;;;;;0.60;0.60;;;;;;;;;;5016845;28;20201;-80
2022/06/07 02:38:45;;;;;;;1.10;0.57;;;;;;;;;;5016519;28;20459;-80
2022/06/07 02:41:15;;;;;;;0.40;0.40;;;;;;;;;;5017082;28;20026;-80
2022/06/07 02:43:40;;;;;;;0.30;0.30;;;;;;;;;;5016978;28;20032;-80
2022/06/07 02:46:08;;;;;;;0.28;0.28;;;;;;;;;;5017137;28;20026;-80
2022/06/07 02:48:33;;;;;;;0.15;0.15;;;;;;;;;;5016932;28;20022;-80
2022/06/07 02:51:01;;;;;;;0.30;0.30;;;;;;;;;;5017253;28;20047;-80
2022/06/07 02:53:26;;;;;;;0.50;0.40;;;;;;;;;;5016647;28;20022;-80
2022/06/07 02:55:57;;;;;;;0.90;0.90;;;;;;;;;;5016373;28;20346;-79
2022/06/07 02:58:27;;;;;;;10.05;0.60;;;;;;;;;;5016515;28;20061;-78
2022/06/07 03:00:54;;;;;;;0.60;0.60;;;;;;;;;;5016511;28;20018;-79
2022/06/07 03:03:20;;;;;;;0.63;0.63;;;;;;;;;;5016388;28;20348;-79
2022/06/07 03:05:45;;;;;;;0.85;0.35;;;;;;;;;;5016361;28;20098;-79
2022/06/07 03:08:12;;;;;;;1.10;0.65;;;;;;;;;;5016385;28;20451;-79
2022/06/07 03:10:38;;;;;;;0.13;0.13;;;;;;;;;;5016296;28;20026;-79
2022/06/07 03:13:04;;;;;;;1.02;0.85;;;;;;;;;;5016506;28;20028;-79
2022/06/07 03:15:29;;;;;;;0.30;0.30;;;;;;;;;;5016171;28;20021;-79
2022/06/07 03:17:55;;;;;;;2.13;0.88;;;;;;;;;;5016256;28;20030;-80
2022/06/07 03:20:20;;;;;;;2.50;1.00;;;;;;;;;;5015824;28;20116;-79
2022/06/07 03:22:48;;;;;;;0.63;0.28;;;;;;;;;;5016462;28;20021;-79
2022/06/07 03:25:13;;;;;;;0.30;0.30;;;;;;;;;;5016138;28;20022;-79
2022/06/07 03:27:41;;;;;;;0.10;0.10;;;;;;;;;;5016506;28;20032;-79
2022/06/07 03:30:11;;;;;;;1.08;0.60;;;;;;;;;;5016559;28;20111;-78
2022/06/07 03:32:38;;;;;;;0.40;0.40;;;;;;;;;;5032131;28;20447;-79
2022/06/07 03:35:04;;;;;;;0.55;0.55;;;;;;;;;;5015415;28;20022;-79
2022/06/07 03:37:32;;;;;;;0.65;0.65;;;;;;;;;;5015709;28;20030;-79
2022/06/07 03:39:57;;;;;;;0.40;0.40;;;;;;;;;;4998775;28;20474;-78
2022/06/07 03:42:28;;;;;;;0.30;0.30;;;;;;;;;;5015947;28;20113;-79
2022/06/07 03:44:53;;;;;;;0.57;0.20;;;;;;;;;;5014610;28;20033;-78
2022/06/07 03:47:18;;;;;;;0.10;0.10;;;;;;;;;;5015438;28;20030;-72
2022/06/07 03:49:46;;;;;;;0.20;0.20;;;;;;;;;;5014715;28;20053;-75
2022/06/07 03:52:12;;;;;;;0.30;0.20;;;;;;;;;;5015468;28;20104;-76
2022/06/07 03:54:39;;;;;;;0.20;0.20;;;;;;;;;;5047981;28;20529;-76
2022/06/07 03:57:04;;;;;;;0.25;0.25;;;;;;;;;;5014816;28;20396;-75
2022/06/07 03:59:32;;;;;;;0.93;0.28;;;;;;;;;;5015669;28;20069;-75
2022/06/07 04:01:58;;;;;;;1.92;0.70;;;;;;;;;;5015090;28;20037;-75
2022/06/07 04:04:23;;;;;;;0.20;0.20;;;;;;;;;;5015457;28;20018;-75
2022/06/07 04:09:40;;;;;;;0.25;0.17;;;;;;;;;;5015573;28;20051;-73
2022/06/07 04:12:10;;;;;;;0.00;0.00;;;;;;;;;;5014291;28;20018;-73
2022/06/07 04:14:40;;;;;;;0.15;0.05;;;;;;;;;;5022436;28;20041;-74
2022/06/07 04:17:08;;;;;;;0.90;0.40;;;;;;;;;;5014809;28;20124;-74
2022/06/07 04:19:35;;;;;;;1.40;0.63;;;;;;;;;;5029930;28;20041;-74
2022/06/07 04:22:01;;;;;;;0.40;0.40;;;;;;;;;;5015141;28;20384;-74
2022/06/07 04:24:26;;;;;;;0.30;0.30;;;;;;;;;;5046206;28;20022;-74
2022/06/07 04:26:54;;;;;;;0.75;0.70;;;;;;;;;;5014943;28;20435;-74
2022/06/07 04:29:22;;;;;;;2.38;0.43;;;;;;;;;;5015025;28;20032;-74
2022/06/07 04:31:48;;;;;;;0.80;0.20;;;;;;;;;;5046210;28;20060;-74
2022/06/07 04:34:18;;;;;;;0.90;0.85;;;;;;;;;;5014971;28;20435;-74
2022/06/07 04:36:44;;;;;;;0.10;0.10;;;;;;;;;;5015487;28;20391;-74
2022/06/07 04:39:10;;;;;;;0.20;0.20;;;;;;;;;;5013952;28;20026;-75
2022/06/07 04:41:35;;;;;;;1.70;0.38;;;;;;;;;;5013840;28;20022;-74
2022/06/07 04:44:00;;;;;;;0.20;0.20;;;;;;;;;;5015264;28;20160;-74
2022/06/07 04:46:31;;;;;;;0.10;0.10;;;;;;;;;;5014763;28;20065;-75
2022/06/07 04:48:59;;;;;;;0.38;0.35;;;;;;;;;;5014804;28;20022;-75
2022/06/07 04:51:30;;;;;;;0.30;0.20;;;;;;;;;;5014841;28;20037;-76
2022/06/07 04:54:02;;;;;;;0.30;0.22;;;;;;;;;;5014780;28;20026;-76
2022/06/07 04:56:31;;;;;;;0.10;0.10;;;;;;;;;;5015073;28;20157;-74
2022/06/07 04:58:58;;;;;;;0.65;0.65;;;;;;;;;;5013831;28;20069;-74
2022/06/07 05:01:26;;;;;;;0.30;0.28;;;;;;;;;;5013748;28;20018;-74
2022/06/07 05:03:52;;;;;;;3.30;1.10;;;;;;;;;;5047118;28;20443;-74
2022/06/07 05:06:33;;;;;;;0.10;0.10;;;;;;;;;;5030421;28;20030;-74
2022/06/07 05:09:01;;;;;;;0.10;0.10;;;;;;;;;;5014726;28;20037;-76
2022/06/07 05:11:32;;;;;;;0.38;0.38;;;;;;;;;;5030065;28;20455;-75
2022/06/07 05:14:03;;;;;;;0.43;0.15;;;;;;;;;;5014884;28;20499;-75
2022/06/07 05:16:29;;;;;;;0.25;0.25;;;;;;;;;;5013642;28;20029;-74
2022/06/07 05:18:58;;;;;;;0.47;0.47;;;;;;;;;;5030041;28;20025;-74
2022/06/07 05:21:26;;;;;;;0.20;0.20;;;;;;;;;;5014503;28;20096;-74
2022/06/07 05:23:53;;;;;;;0.75;0.63;;;;;;;;;;5014513;28;20034;-75
2022/06/07 05:26:50;;;;;;;0.10;0.10;;;;;;;;;;5013484;28;20113;-74
2022/06/07 05:29:26;;;;;;;0.00;0.00;;;;;;;;;;5014758;28;20026;-75
2022/06/07 05:31:52;;;;;;;0.73;0.73;;;;;;;;;;5014048;28;20030;-75
2022/06/07 05:34:18;;;;;;;0.10;0.10;;;;;;;;;;5014288;28;20540;-75
2022/06/07 05:36:43;;;;;;;0.47;0.47;;;;;;;;;;5029661;28;20104;-75
2022/06/07 05:39:30;;;;;;;0.10;0.10;;;;;;;;;;5014361;28;20041;-76
2022/06/07 05:41:56;;;;;;;0.20;0.20;;;;;;;;;;5014825;28;20022;-75
2022/06/07 05:44:24;;;;;;;1.30;1.20;;;;;;;;;;5016503;28;20096;-75
2022/06/07 05:46:50;;;;;;;0.25;0.13;;;;;;;;;;5017343;28;20431;-75
2022/06/07 05:49:16;;;;;;;1.08;0.85;;;;;;;;;;5050378;28;20032;-76
2022/06/07 05:51:42;;;;;;;0.13;0.13;;;;;;;;;;5017684;28;20064;-76
2022/06/07 05:54:07;;;;;;;0.10;0.10;;;;;;;;;;5050139;28;20435;-76
2022/06/07 05:56:33;;;;;;;0.17;0.17;;;;;;;;;;5018005;28;20026;-76
2022/06/07 05:58:59;;;;;;;1.15;0.32;;;;;;;;;;5016500;28;20033;-76
2022/06/07 06:01:26;;;;;;;0.40;0.40;;;;;;;;;;5017759;28;20032;-74
2022/06/07 06:03:52;;;;;;;0.20;0.20;;;;;;;;;;5049452;28;20045;-74
2022/06/07 06:06:20;;;;;;;0.13;0.13;;;;;;;;;;5049944;28;20018;-75
2022/06/07 06:11:31;;;;;;;0.00;0.00;;;;;;;;;;5044964;28;20091;-75
2022/06/07 06:13:56;;;;;;;2.03;0.90;;;;;;;;;;5017865;28;20026;-75
2022/06/07 06:16:22;;;;;;;0.10;0.10;;;;;;;;;;5017629;28;20032;-75
2022/06/07 06:18:50;;;;;;;0.20;0.20;;;;;;;;;;5049502;28;20093;-74
2022/06/07 06:21:17;;;;;;;0.25;0.10;;;;;;;;;;5050330;28;20096;-74
2022/06/07 06:23:43;;;;;;;0.17;0.13;;;;;;;;;;5049928;28;20332;-76
2022/06/07 06:26:13;;;;;;;1.40;0.40;;;;;;;;;;5000093;28;20033;-75
2022/06/07 06:32:01;;;;;;;0.22;0.22;;;;;;;;;;5017083;28;20037;-74
2022/06/07 06:45:29;;;;;;;0.50;0.50;;;;;;;;;;5014328;28;20110;-75
2022/06/07 07:32:15;;;;;;;0.82;0.32;;;;;;;;;;4883283;29;20068;-75
2022/06/07 07:41:26;;;;;;;0.43;0.40;;;;;;;;;;4918772;29;20038;-76
2022/06/07 07:57:48;;;;;;;0.57;0.57;;;;;;;;;;4861543;29;20555;-76
2022/06/07 08:00:14;;;;;;;0.63;0.40;;;;;;;;;;4861547;29;20121;-76
2022/06/07 08:02:39;;;;;;;0.15;0.15;;;;;;;;;;4861247;29;20099;-76
2022/06/07 08:05:08;;;;;;;7.38;0.30;;;;;;;;;;4880994;29;20059;-76
2022/06/07 08:14:23;;;;;;;0.30;0.30;;;;;;;;;;4916523;29;20564;-76
2022/06/07 08:54:32;;;;;;;1.50;0.30;;;;;;;;;;4828708;29;20044;-76
2022/06/07 09:13:34;;;;;;;0.75;0.75;;;;;;;;;;4810139;29;20057;-75
2022/06/07 09:16:00;;;;;;;0.22;0.22;;;;;;;;;;4854748;29;20483;-75
2022/06/07 09:18:29;;;;;;;0.17;0.10;;;;;;;;;;4899677;29;20064;-77
2022/06/07 09:20:59;;;;;;;1.83;0.95;;;;;;;;;;4936713;29;20031;-74
2022/06/07 09:23:31;;;;;;;0.32;0.20;;;;;;;;;;4974426;28;20043;-75
2022/06/07 09:26:19;;;;;;;0.10;0.10;;;;;;;;;;4958281;29;20019;-74
2022/06/07 09:28:47;;;;;;;0.00;0.00;;;;;;;;;;4958288;29;20031;-76
2022/06/07 09:31:16;;;;;;;0.00;0.00;;;;;;;;;;4974418;28;20050;-75
2022/06/07 09:33:52;;;;;;;0.52;0.30;;;;;;;;;;4958070;29;20210;-76
2022/06/07 09:36:30;;;;;;;0.88;0.88;;;;;;;;;;4980998;28;20455;-75
2022/06/07 09:38:58;;;;;;;1.63;0.80;;;;;;;;;;5017476;28;20125;-75
2022/06/07 09:41:40;;;;;;;0.25;0.25;;;;;;;;;;5017112;28;20021;-75
2022/06/07 09:44:12;;;;;;;0.10;0.10;;;;;;;;;;5018305;28;20410;-75
2022/06/07 09:46:38;;;;;;;0.38;0.38;;;;;;;;;;5050544;28;20049;-75
2022/06/07 09:49:06;;;;;;;0.45;0.30;;;;;;;;;;5016960;28;20049;-74
2022/06/07 09:51:41;;;;;;;2.00;0.55;;;;;;;;;;5016917;28;20041;-74
2022/06/07 09:54:19;;;;;;;0.20;0.20;;;;;;;;;;5017847;28;20026;-74
2022/06/07 09:57:00;;;;;;;0.25;0.25;;;;;;;;;;5017903;28;20025;-73
2022/06/07 09:59:31;;;;;;;0.20;0.10;;;;;;;;;;5017946;28;20101;-73
2022/06/07 10:02:04;;;;;;;0.10;0.10;;;;;;;;;;5017467;28;20032;-74
2022/06/07 10:04:50;;;;;;;1.88;1.00;;;;;;;;;;5016804;28;20026;-75
2022/06/07 10:07:38;;;;;;;1.90;0.82;;;;;;;;;;5049311;28;20022;-76
2022/06/07 10:10:13;;;;;;;0.20;0.20;;;;;;;;;;5049492;28;20367;-75
2022/06/07 10:12:59;;;;;;;0.52;0.52;;;;;;;;;;5017509;28;20026;-75
2022/06/07 10:15:52;;;;;;;0.20;0.20;;;;;;;;;;5049439;28;20352;-75
2022/06/07 10:18:36;;;;;;;0.55;0.30;;;;;;;;;;5017397;28;20025;-75
2022/06/07 10:21:14;;;;;;;0.10;0.10;;;;;;;;;;5049379;28;20382;-76
2022/06/07 10:23:51;;;;;;;0.20;0.20;;;;;;;;;;5017465;28;20445;-77
2022/06/07 10:26:45;;;;;;;0.40;0.40;;;;;;;;;;5017097;28;20022;-76
2022/06/07 10:29:48;;;;;;;0.32;0.20;;;;;;;;;;5016212;28;20109;-75
2022/06/07 10:32:27;;;;;;;;;;;;;;;;;;5017522;28;20045;-76
2022/06/07 10:35:15;;;;;;;0.20;0.20;;;;;;;;;;5016902;28;19909;-76
2022/06/07 10:41:32;;;;;;;0.63;0.32;;;;;;;;;;5015724;28;20084;-74
2022/06/07 10:44:40;;;;;;;1.67;0.80;;;;;;;;;;4999049;28;20084;-74
2022/06/07 10:47:35;;;;;;;0.32;0.32;;;;;;;;;;4999301;28;20527;-74
2022/06/07 10:50:23;;;;;;;1.65;0.52;;;;;;;;;;4996791;28;20121;-76
2022/06/07 10:52:57;;;;;;;0.22;0.20;;;;;;;;;;5015170;28;20025;-74
2022/06/07 10:55:35;;;;;;;0.90;0.63;;;;;;;;;;5015231;28;20042;-75
2022/06/07 10:58:24;;;;;;;0.93;0.47;;;;;;;;;;5015475;28;20502;-75
2022/06/07 11:01:20;;;;;;;0.00;0.00;;;;;;;;;;5015311;28;20026;-76
2022/06/07 11:03:54;;;;;;;0.30;0.30;;;;;;;;;;5015172;28;20465;-77
2022/06/07 11:09:20;;;;;;;2.03;0.90;;;;;;;;;;5014931;28;20040;-77
2022/06/07 11:11:49;;;;;;;0.15;0.15;;;;;;;;;;5014596;28;20464;-77
2022/06/07 11:14:25;;;;;;;0.40;0.32;;;;;;;;;;5001236;28;20038;-76
2022/06/07 11:17:01;;;;;;;0.65;0.17;;;;;;;;;;5016633;28;20069;-78
2022/06/07 11:19:26;;;;;;;0.28;0.20;;;;;;;;;;5048071;28;20354;-77
2022/06/07 11:22:04;;;;;;;4.32;0.75;;;;;;;;;;5048599;28;20077;-77
2022/06/07 11:24:32;;;;;;;0.10;0.10;;;;;;;;;;5049043;28;20018;-76
2022/06/07 11:27:07;;;;;;;0.57;0.30;;;;;;;;;;5031893;28;20037;-77
2022/06/07 11:29:32;;;;;;;0.30;0.30;;;;;;;;;;5016294;28;20395;-75
2022/06/07 11:31:59;;;;;;;0.15;0.10;;;;;;;;;;5031659;28;20029;-74
2022/06/07 11:34:29;;;;;;;0.20;0.20;;;;;;;;;;5015421;28;20028;-73
2022/06/07 11:37:13;;;;;;;0.38;0.38;;;;;;;;;;5016158;28;20125;-74
2022/06/07 11:39:38;;;;;;;0.03;0.03;;;;;;;;;;5015842;28;20026;-74
2022/06/07 11:42:06;;;;;;;0.65;0.40;;;;;;;;;;5015519;28;20026;-74
2022/06/07 11:44:39;;;;;;;0.20;0.13;;;;;;;;;;5015637;28;20033;-73
2022/06/07 11:47:07;;;;;;;0.00;0.00;;;;;;;;;;5015741;28;20034;-74
2022/06/07 11:49:38;;;;;;;0.08;0.08;;;;;;;;;;5016019;28;20418;-74
2022/06/07 11:52:13;;;;;;;0.35;0.35;;;;;;;;;;5015665;28;20026;-73
2022/06/07 11:54:38;;;;;;;3.95;0.82;;;;;;;;;;5015837;28;20033;-74
2022/06/07 11:57:31;;;;;;;0.28;0.28;;;;;;;;;;5015552;28;20029;-75
2022/06/07 12:00:19;;;;;;;0.15;0.13;;;;;;;;;;5015612;28;20474;-74
2022/06/07 12:03:08;;;;;;;8.77;2.60;;;;;;;;;;5016866;28;20030;-76
2022/06/07 12:05:52;;;;;;;0.70;0.57;;;;;;;;;;5015066;28;20034;-80
2022/06/07 12:08:39;;;;;;;0.50;0.50;;;;;;;;;;5045302;28;20130;-80
2022/06/07 12:11:25;;;;;;;0.10;0.10;;;;;;;;;;4998419;28;20092;-81
2022/06/07 12:13:56;;;;;;;0.10;0.10;;;;;;;;;;5030638;28;20119;-80
2022/06/07 12:16:44;;;;;;;2.07;1.57;;;;;;;;;;5047829;28;20443;-81
2022/06/07 12:19:20;;;;;;;0.13;0.13;;;;;;;;;;5014462;28;20279;-82
2022/06/07 12:21:55;;;;;;;0.30;0.25;;;;;;;;;;5015055;28;20097;-82
2022/06/07 12:24:24;;;;;;;0.30;0.30;;;;;;;;;;5031007;28;20021;-80
2022/06/07 12:26:50;;;;;;;1.50;0.77;;;;;;;;;;5014304;28;20100;-79
2022/06/07 12:29:31;;;;;;;0.00;0.00;;;;;;;;;;5031375;28;20025;-80
2022/06/07 12:32:01;;;;;;;2.83;0.30;;;;;;;;;;5013943;28;20029;-81
2022/06/07 12:34:36;;;;;;;0.40;0.40;;;;;;;;;;5031135;28;20041;-80
2022/06/07 12:37:04;;;;;;;0.30;0.30;;;;;;;;;;5031232;28;20030;-80
2022/06/07 12:39:31;;;;;;;5.15;0.70;;;;;;;;;;5047244;28;20022;-80
2022/06/07 12:42:03;;;;;;;0.15;0.15;;;;;;;;;;5030345;28;20492;-81
2022/06/07 12:44:32;;;;;;;0.20;0.20;;;;;;;;;;5014923;28;20026;-80
2022/06/07 12:47:02;;;;;;;10.93;1.38;;;;;;;;;;5030180;28;20061;-79
2022/06/07 12:49:33;;;;;;;0.30;0.30;;;;;;;;;;5029874;28;20037;-81
2022/06/07 12:52:06;;;;;;;0.25;0.25;;;;;;;;;;5030186;28;20514;-80
2022/06/07 12:54:33;;;;;;;0.35;0.35;;;;;;;;;;5047357;28;20045;-80
2022/06/07 12:57:04;;;;;;;0.00;0.00;;;;;;;;;;5046837;28;20026;-79
2022/06/07 12:59:37;;;;;;;0.77;0.47;;;;;;;;;;5030355;28;20104;-79
2022/06/07 13:02:33;;;;;;;21.27;2.50;;;;;;;;;;5015176;28;20500;-79
2022/06/07 13:05:06;;;;;;;0.20;0.20;;;;;;;;;;5014062;28;20068;-80
2022/06/07 13:07:41;;;;;;;0.10;0.10;;;;;;;;;;5030497;28;20053;-81
2022/06/07 13:10:11;;;;;;;0.20;0.20;;;;;;;;;;5030109;28;20026;-80
2022/06/07 13:12:43;;;;;;;0.22;0.20;;;;;;;;;;5046999;28;20033;-80
2022/06/07 13:15:15;;;;;;;;;;;;;;;;;;5029822;28;20355;-80
2022/06/07 13:17:52;;;;;;;4.80;1.08;;;;;;;;;;5014563;28;19914;-81
2022/06/07 13:20:35;;;;;;;0.63;0.63;;;;;;;;;;5015044;28;20025;-79
2022/06/07 13:23:01;;;;;;;1.25;0.77;;;;;;;;;;5029844;28;20029;-81
2022/06/07 13:25:34;;;;;;;0.40;0.40;;;;;;;;;;5030277;28;20029;-81
2022/06/07 13:28:05;;;;;;;0.43;0.43;;;;;;;;;;5014337;28;20033;-79
2022/06/07 13:30:38;;;;;;;0.35;0.30;;;;;;;;;;5013359;28;20025;-79
2022/06/07 13:33:12;;;;;;;0.43;0.28;;;;;;;;;;5013412;28;20348;-83
2022/06/07 13:35:40;;;;;;;0.98;0.22;;;;;;;;;;5047617;28;20026;-79
2022/06/07 13:38:21;;;;;;;0.20;0.20;;;;;;;;;;5014207;28;20566;-79
2022/06/07 13:40:49;;;;;;;3.22;0.75;;;;;;;;;;5013737;28;20167;-81
2022/06/07 13:43:22;;;;;;;1.75;0.63;;;;;;;;;;5014116;28;20336;-83
2022/06/07 13:45:53;;;;;;;1.10;0.45;;;;;;;;;;5014329;28;20444;-80
2022/06/07 13:53:21;;;;;;;0.20;0.20;;;;;;;;;;5013538;28;20025;-81
2022/06/07 13:54:16;;;;;;;0.50;0.50;;;;;;;;;;5013087;28;20072;-81
2022/06/07 13:56:42;;;;;;;0.88;0.85;;;;;;;;;;5014191;28;20328;-85
2022/06/07 13:59:11;;;;;;;0.45;0.32;;;;;;;;;;5014120;28;20061;-81
2022/06/07 14:01:47;;;;;;;1.13;1.02;;;;;;;;;;5030065;28;20022;-81
2022/06/07 14:04:24;;;;;;;0.40;0.35;;;;;;;;;;5015171;28;20087;-80
2022/06/07 14:06:51;;;;;;;1.85;0.70;;;;;;;;;;5049560;28;20116;-81
2022/06/07 14:09:27;;;;;;;2.13;1.45;;;;;;;;;;5000195;28;20073;-80
2022/06/07 14:11:56;;;;;;;0.52;0.52;;;;;;;;;;5016427;28;20040;-81
2022/06/07 14:14:22;;;;;;;0.50;0.50;;;;;;;;;;5017433;28;20080;-82
2022/06/07 14:16:51;;;;;;;0.60;0.55;;;;;;;;;;5016436;28;20024;-82
2022/06/07 14:19:33;;;;;;;0.40;0.40;;;;;;;;;;5016473;28;20026;-83
2022/06/07 14:21:59;;;;;;;0.35;0.17;;;;;;;;;;5018727;28;20030;-79
2022/06/07 14:24:25;;;;;;;8.32;1.58;;;;;;;;;;5016653;28;20153;-80
2022/06/07 14:26:54;;;;;;;0.60;0.60;;;;;;;;;;5049400;28;20014;-79
2022/06/07 14:29:19;;;;;;;1.08;0.52;;;;;;;;;;5016702;28;20026;-82
2022/06/07 14:31:46;;;;;;;0.60;0.60;;;;;;;;;;5002880;28;20032;-83
2022/06/07 14:34:17;;;;;;;1.75;1.58;;;;;;;;;;5019693;28;20017;-81
2022/06/07 14:36:46;;;;;;;0.40;0.40;;;;;;;;;;5016794;28;20097;-79
2022/06/07 14:39:20;;;;;;;1.35;1.13;;;;;;;;;;5016713;28;20033;-80
2022/06/07 14:41:45;;;;;;;0.57;0.57;;;;;;;;;;5049196;28;20034;-84
2022/06/07 14:44:12;;;;;;;0.82;0.77;;;;;;;;;;5022398;28;20033;-83
2022/06/07 14:46:44;;;;;;;0.50;0.47;;;;;;;;;;5052672;28;20018;-82
2022/06/07 14:49:22;;;;;;;15.05;1.67;;;;;;;;;;5000827;28;20033;-85
2022/06/07 14:51:49;;;;;;;1.23;0.60;;;;;;;;;;5016925;28;20026;-85
2022/06/07 14:54:26;;;;;;;0.80;0.80;;;;;;;;;;5032420;28;20022;-87
2022/06/07 14:56:56;;;;;;;1.17;0.80;;;;;;;;;;5032369;28;20022;-88
2022/06/07 14:59:21;;;;;;;0.55;0.55;;;;;;;;;;4999825;28;20053;-89
2022/06/07 15:01:54;;;;;;;1.02;0.80;;;;;;;;;;5032504;28;20022;-89
2022/06/07 15:04:36;;;;;;;0.60;0.60;;;;;;;;;;5000067;28;20116;-86
2022/06/07 15:07:02;;;;;;;0.40;0.38;;;;;;;;;;5032300;28;20031;-88
2022/06/07 15:09:29;;;;;;;17.35;0.60;;;;;;;;;;5032114;28;20341;-87
2022/06/07 15:11:56;;;;;;;0.30;0.30;;;;;;;;;;5032567;28;20481;-85
2022/06/07 15:14:22;;;;;;;0.90;0.50;;;;;;;;;;4999208;28;20399;-84
2022/06/07 15:16:50;;;;;;;0.10;0.10;;;;;;;;;;5031183;28;20084;-85
2022/06/07 15:19:25;;;;;;;0.55;0.55;;;;;;;;;;4999328;28;20049;-88
2022/06/07 15:21:51;;;;;;;0.30;0.30;;;;;;;;;;5048649;28;20025;-84
2022/06/07 15:24:20;;;;;;;0.13;0.13;;;;;;;;;;5016130;28;20029;-87
2022/06/07 15:26:47;;;;;;;0.00;0.00;;;;;;;;;;5031953;28;20017;-86
2022/06/07 15:29:15;;;;;;;0.25;0.25;;;;;;;;;;5016387;28;20033;-85
2022/06/07 15:31:42;;;;;;;0.10;0.10;;;;;;;;;;5032095;28;20053;-86
2022/06/07 15:34:11;;;;;;;0.45;0.30;;;;;;;;;;5032215;28;20033;-85
2022/06/07 15:36:41;;;;;;;0.10;0.10;;;;;;;;;;5014841;28;20033;-87
2022/06/07 15:39:09;;;;;;;0.22;0.22;;;;;;;;;;5015701;28;20022;-86
2022/06/07 15:44:21;;;;;;;0.20;0.20;;;;;;;;;;5043066;28;20426;-87
2022/06/07 15:46:48;;;;;;;0.38;0.20;;;;;;;;;;5015973;28;20029;-86
2022/06/07 15:49:34;;;;;;;0.35;0.35;;;;;;;;;;5031693;28;20033;-83
2022/06/07 15:52:00;;;;;;;0.00;0.00;;;;;;;;;;4978850;28;20030;-85
2022/06/07 16:01:12;;;;;;;0.00;0.00;;;;;;;;;;4898852;29;20040;-84
2022/06/07 16:03:38;;;;;;;0.43;0.25;;;;;;;;;;4883153;29;20032;-87
2022/06/07 16:06:07;;;;;;;0.32;0.32;;;;;;;;;;4867824;29;20043;-86
2022/06/07 16:08:32;;;;;;;0.00;0.00;;;;;;;;;;4883286;29;20119;-88
2022/06/07 16:10:58;;;;;;;0.40;0.13;;;;;;;;;;4896556;29;20040;-86
2022/06/07 16:13:26;;;;;;;0.00;0.00;;;;;;;;;;4902002;29;20050;-83
2022/06/07 16:15:54;;;;;;;0.47;0.32;;;;;;;;;;4917411;29;20055;-85
2022/06/07 16:18:20;;;;;;;0.10;0.10;;;;;;;;;;4901431;29;20129;-87
2022/06/07 16:20:46;;;;;;;0.00;0.00;;;;;;;;;;4917829;29;20386;-85
2022/06/07 16:23:12;;;;;;;0.15;0.15;;;;;;;;;;4901487;29;20131;-88
2022/06/07 16:25:39;;;;;;;0.00;0.00;;;;;;;;;;4917717;29;20483;-86
2022/06/07 16:33:40;;;;;;;0.47;0.28;;;;;;;;;;5006524;28;20045;-83
2022/06/07 16:36:11;;;;;;;0.05;0.05;;;;;;;;;;4997679;28;20109;-87
2022/06/07 16:38:44;;;;;;;0.30;0.13;;;;;;;;;;5050983;28;20030;-86
2022/06/07 16:41:10;;;;;;;0.35;0.35;;;;;;;;;;5034058;28;20026;-87
2022/06/07 16:46:23;;;;;;;0.82;0.82;;;;;;;;;;5042498;28;20081;-82
2022/06/07 16:48:53;;;;;;;0.00;0.00;;;;;;;;;;5030287;28;20026;-87
2022/06/07 16:51:43;;;;;;;0.98;0.38;;;;;;;;;;5014602;28;20037;-89
2022/06/07 16:54:11;;;;;;;0.30;0.30;;;;;;;;;;5015118;28;20097;-88
2022/06/07 17:03:27;;;;;;;0.10;0.10;;;;;;;;;;5013006;28;20088;-83
2022/06/07 17:05:55;;;;;;;0.25;0.25;;;;;;;;;;4997023;28;20030;-87
2022/06/07 17:08:24;;;;;;;0.38;0.32;;;;;;;;;;5013289;28;20044;-85
2022/06/07 17:10:55;;;;;;;0.47;0.40;;;;;;;;;;4997455;28;20022;-86
2022/06/07 17:20:13;;;;;;;0.43;0.43;;;;;;;;;;4935638;29;20128;-84
2022/06/07 17:22:38;;;;;;;0.20;0.20;;;;;;;;;;4934998;29;20050;-85
2022/06/07 17:25:05;;;;;;;0.10;0.10;;;;;;;;;;4920013;29;20032;-85
2022/06/07 17:27:30;;;;;;;0.15;0.15;;;;;;;;;;4921931;29;20028;-86
2022/06/07 17:29:55;;;;;;;0.90;0.70;;;;;;;;;;4916775;29;20042;-86
2022/06/07 17:32:21;;;;;;;0.43;0.20;;;;;;;;;;4925822;29;20031;-87
2022/06/07 17:34:46;;;;;;;0.20;0.10;;;;;;;;;;4941613;29;20031;-84
2022/06/07 17:37:12;;;;;;;0.38;0.38;;;;;;;;;;4925164;29;20101;-85
2022/06/07 17:39:44;;;;;;;0.90;0.50;;;;;;;;;;4927473;29;20016;-87
2022/06/07 17:42:28;;;;;;;0.38;0.38;;;;;;;;;;4945247;29;20094;-87
2022/06/07 17:45:09;;;;;;;0.30;0.13;;;;;;;;;;4946667;29;20027;-85
2022/06/07 17:47:38;;;;;;;0.40;0.40;;;;;;;;;;4991647;28;20034;-84
2022/06/07 17:50:18;;;;;;;0.25;0.13;;;;;;;;;;5020543;28;20025;-86
2022/06/07 17:52:44;;;;;;;4.15;0.73;;;;;;;;;;5021037;28;20157;-81
2022/06/07 17:55:31;;;;;;;0.20;0.20;;;;;;;;;;5035727;28;20049;-83
2022/06/07 17:57:59;;;;;;;0.55;0.30;;;;;;;;;;4961772;28;20532;-86
2022/06/07 18:00:26;;;;;;;0.70;0.65;;;;;;;;;;4962032;28;20053;-82
2022/06/07 18:02:54;;;;;;;0.30;0.30;;;;;;;;;;4945274;28;20126;-85
2022/06/07 18:05:21;;;;;;;0.50;0.32;;;;;;;;;;4947440;28;20023;-87
2022/06/07 18:07:47;;;;;;;4.03;0.35;;;;;;;;;;4980102;28;20428;-85
2022/06/07 18:10:12;;;;;;;0.20;0.20;;;;;;;;;;4976979;28;20046;-86
2022/06/07 18:12:42;;;;;;;0.35;0.32;;;;;;;;;;4960790;28;20121;-85
2022/06/07 18:15:17;;;;;;;0.40;0.40;;;;;;;;;;4976889;28;20039;-83
2022/06/07 18:17:42;;;;;;;0.47;0.40;;;;;;;;;;4993252;28;20034;-84
2022/06/07 18:20:08;;;;;;;0.20;0.20;;;;;;;;;;4976969;28;20113;-85